sensor_id;sensor_type;location;lat;lon;timestamp;temperature;humidity
46117;DHT22;32591;48.102;11.772;2023-04-02T00:01:18;8.00;99.90
46117;DHT22;32591;48.102;11.772;2023-04-02T00:06:53;8.00;99.90
46117;DHT22;32591;48.102;11.772;2023-04-02T00:09:38;7.90;99.90
46117;DHT22;32591;48.102;11.772;2023-04-02T00:12:17;7.90;99.90
46117;DHT22;32591;48.102;11.772;2023-04-02T00:14:48;8.00;99.90
46117;DHT22;32591;48.102;11.772;2023-04-02T00:17:19;8.00;99.90
46117;DHT22;32591;48.102;11.772;2023-04-02T00:19:50;8.00;99.90
46117;DHT22;32591;48.102;11.772;2023-04-02T00:22:24;7.90;99.90
46117;DHT22;32591;48.102;11.772;2023-04-02T00:24:54;7.90;99.90
46117;DHT22;32591;48.102;11.772;2023-04-02T00:27:23;7.90;99.90
46117;DHT22;32591;48.102;11.772;2023-04-02T00:29:52;7.90;99.90
46117;DHT22;32591;48.102;11.772;2023-04-02T00:32:24;7.90;99.90
46117;DHT22;32591;48.102;11.772;2023-04-02T00:34:53;7.80;99.90
46117;DHT22;32591;48.102;11.772;2023-04-02T00:37:22;7.80;99.90
46117;DHT22;32591;48.102;11.772;2023-04-02T00:39:55;7.80;99.90
46117;DHT22;32591;48.102;11.772;2023-04-02T00:42:27;7.80;99.90
46117;DHT22;32591;48.102;11.772;2023-04-02T00:44:56;7.80;99.90
46117;DHT22;32591;48.102;11.772;2023-04-02T00:47:25;7.80;99.90
46117;DHT22;32591;48.102;11.772;2023-04-02T00:49:58;7.80;99.90
46117;DHT22;32591;48.102;11.772;2023-04-02T00:52:34;7.70;99.90
46117;DHT22;32591;48.102;11.772;2023-04-02T00:55:06;7.70;99.90
46117;DHT22;32591;48.102;11.772;2023-04-02T00:57:40;7.80;99.90
46117;DHT22;32591;48.102;11.772;2023-04-02T01:00:19;7.80;99.90
46117;DHT22;32591;48.102;11.772;2023-04-02T01:06:05;7.70;99.90
46117;DHT22;32591;48.102;11.772;2023-04-02T01:08:53;7.70;99.90
46117;DHT22;32591;48.102;11.772;2023-04-02T01:11:47;7.70;99.90
46117;DHT22;32591;48.102;11.772;2023-04-02T01:14:32;7.60;99.90
46117;DHT22;32591;48.102;11.772;2023-04-02T01:17:19;7.60;99.90
46117;DHT22;32591;48.102;11.772;2023-04-02T01:20:23;7.70;99.90
46117;DHT22;32591;48.102;11.772;2023-04-02T01:23:09;7.70;99.90
46117;DHT22;32591;48.102;11.772;2023-04-02T01:25:42;7.70;99.90
46117;DHT22;32591;48.102;11.772;2023-04-02T01:28:15;7.70;99.90
46117;DHT22;32591;48.102;11.772;2023-04-02T01:30:49;7.70;99.90
46117;DHT22;32591;48.102;11.772;2023-04-02T01:33:18;7.70;99.90
46117;DHT22;32591;48.102;11.772;2023-04-02T01:35:50;7.70;99.90
46117;DHT22;32591;48.102;11.772;2023-04-02T01:38:24;7.80;99.90
46117;DHT22;32591;48.102;11.772;2023-04-02T01:40:58;7.70;99.90
46117;DHT22;32591;48.102;11.772;2023-04-02T01:43:34;7.70;99.90
46117;DHT22;32591;48.102;11.772;2023-04-02T01:46:24;7.70;99.90
46117;DHT22;32591;48.102;11.772;2023-04-02T01:48:52;7.60;99.90
46117;DHT22;32591;48.102;11.772;2023-04-02T01:51:26;7.70;99.90
46117;DHT22;32591;48.102;11.772;2023-04-02T01:53:55;7.70;99.90
46117;DHT22;32591;48.102;11.772;2023-04-02T01:56:26;7.70;99.90
46117;DHT22;32591;48.102;11.772;2023-04-02T01:58:53;7.70;99.90
46117;DHT22;32591;48.102;11.772;2023-04-02T02:01:23;7.70;99.90
46117;DHT22;32591;48.102;11.772;2023-04-02T02:03:53;7.70;99.90
46117;DHT22;32591;48.102;11.772;2023-04-02T02:06:21;7.70;99.90
46117;DHT22;32591;48.102;11.772;2023-04-02T02:08:51;7.80;99.90
46117;DHT22;32591;48.102;11.772;2023-04-02T02:11:23;7.70;99.90
46117;DHT22;32591;48.102;11.772;2023-04-02T02:13:55;7.80;99.90
46117;DHT22;32591;48.102;11.772;2023-04-02T02:16:25;7.80;99.90
46117;DHT22;32591;48.102;11.772;2023-04-02T02:18:58;7.80;99.90
46117;DHT22;32591;48.102;11.772;2023-04-02T02:21:35;7.80;99.90
46117;DHT22;32591;48.102;11.772;2023-04-02T02:24:08;7.80;99.90
46117;DHT22;32591;48.102;11.772;2023-04-02T02:26:44;7.80;99.90
46117;DHT22;32591;48.102;11.772;2023-04-02T02:29:17;7.70;99.90
46117;DHT22;32591;48.102;11.772;2023-04-02T02:31:52;7.70;99.90
46117;DHT22;32591;48.102;11.772;2023-04-02T02:34:24;7.70;99.90
46117;DHT22;32591;48.102;11.772;2023-04-02T02:37:01;7.70;99.90
46117;DHT22;32591;48.102;11.772;2023-04-02T02:39:41;7.70;99.90
46117;DHT22;32591;48.102;11.772;2023-04-02T02:42:14;7.70;99.90
46117;DHT22;32591;48.102;11.772;2023-04-02T02:44:49;7.70;99.90
46117;DHT22;32591;48.102;11.772;2023-04-02T02:47:24;7.70;99.90
46117;DHT22;32591;48.102;11.772;2023-04-02T02:49:56;7.70;99.90
46117;DHT22;32591;48.102;11.772;2023-04-02T02:52:26;7.70;99.90
46117;DHT22;32591;48.102;11.772;2023-04-02T02:54:59;7.70;99.90
46117;DHT22;32591;48.102;11.772;2023-04-02T02:57:32;7.70;99.90
46117;DHT22;32591;48.102;11.772;2023-04-02T03:00:05;7.70;99.90
46117;DHT22;32591;48.102;11.772;2023-04-02T03:02:39;7.70;99.90
46117;DHT22;32591;48.102;11.772;2023-04-02T03:05:08;7.70;99.90
46117;DHT22;32591;48.102;11.772;2023-04-02T03:07:40;7.70;99.90
46117;DHT22;32591;48.102;11.772;2023-04-02T03:10:14;7.70;99.90
46117;DHT22;32591;48.102;11.772;2023-04-02T03:12:51;7.70;99.90
46117;DHT22;32591;48.102;11.772;2023-04-02T03:15:25;7.70;99.90
46117;DHT22;32591;48.102;11.772;2023-04-02T03:17:59;7.70;99.90
46117;DHT22;32591;48.102;11.772;2023-04-02T03:20:32;7.60;99.90
46117;DHT22;32591;48.102;11.772;2023-04-02T03:23:06;7.60;99.90
46117;DHT22;32591;48.102;11.772;2023-04-02T03:25:41;7.70;99.90
46117;DHT22;32591;48.102;11.772;2023-04-02T03:28:13;7.70;99.90
46117;DHT22;32591;48.102;11.772;2023-04-02T03:30:45;7.60;99.90
46117;DHT22;32591;48.102;11.772;2023-04-02T03:33:20;7.60;99.90
46117;DHT22;32591;48.102;11.772;2023-04-02T03:35:55;7.60;99.90
46117;DHT22;32591;48.102;11.772;2023-04-02T03:38:26;7.60;99.90
46117;DHT22;32591;48.102;11.772;2023-04-02T03:40:59;7.60;99.90
46117;DHT22;32591;48.102;11.772;2023-04-02T03:43:32;7.50;99.90
46117;DHT22;32591;48.102;11.772;2023-04-02T03:46:09;7.60;99.90
46117;DHT22;32591;48.102;11.772;2023-04-02T03:48:43;7.60;99.90
46117;DHT22;32591;48.102;11.772;2023-04-02T03:51:15;7.60;99.90
46117;DHT22;32591;48.102;11.772;2023-04-02T03:53:44;7.60;99.90
46117;DHT22;32591;48.102;11.772;2023-04-02T03:56:23;7.60;99.90
46117;DHT22;32591;48.102;11.772;2023-04-02T03:58:59;7.60;99.90
46117;DHT22;32591;48.102;11.772;2023-04-02T04:01:33;7.60;99.90
46117;DHT22;32591;48.102;11.772;2023-04-02T04:04:06;7.60;99.90
46117;DHT22;32591;48.102;11.772;2023-04-02T04:06:40;7.60;99.90
46117;DHT22;32591;48.102;11.772;2023-04-02T04:09:11;7.50;99.90
46117;DHT22;32591;48.102;11.772;2023-04-02T04:11:47;7.50;99.90
46117;DHT22;32591;48.102;11.772;2023-04-02T04:14:17;7.50;99.90
46117;DHT22;32591;48.102;11.772;2023-04-02T04:16:48;7.50;99.90
46117;DHT22;32591;48.102;11.772;2023-04-02T04:19:23;7.50;99.90
46117;DHT22;32591;48.102;11.772;2023-04-02T04:22:08;7.40;99.90
46117;DHT22;32591;48.102;11.772;2023-04-02T04:24:36;7.50;99.90
46117;DHT22;32591;48.102;11.772;2023-04-02T04:27:07;7.40;99.90
46117;DHT22;32591;48.102;11.772;2023-04-02T04:29:48;7.40;99.90
46117;DHT22;32591;48.102;11.772;2023-04-02T04:32:24;7.40;99.90
46117;DHT22;32591;48.102;11.772;2023-04-02T04:34:58;7.50;99.90
46117;DHT22;32591;48.102;11.772;2023-04-02T04:37:32;7.40;99.90
46117;DHT22;32591;48.102;11.772;2023-04-02T04:40:07;7.50;99.90
46117;DHT22;32591;48.102;11.772;2023-04-02T04:42:39;7.50;99.90
46117;DHT22;32591;48.102;11.772;2023-04-02T04:45:15;7.50;99.90
46117;DHT22;32591;48.102;11.772;2023-04-02T04:47:52;7.50;99.90
46117;DHT22;32591;48.102;11.772;2023-04-02T04:50:30;7.50;99.90
46117;DHT22;32591;48.102;11.772;2023-04-02T04:53:04;7.50;99.90
46117;DHT22;32591;48.102;11.772;2023-04-02T04:55:36;7.50;99.90
46117;DHT22;32591;48.102;11.772;2023-04-02T04:58:13;7.50;99.90
46117;DHT22;32591;48.102;11.772;2023-04-02T05:00:53;7.50;99.90
46117;DHT22;32591;48.102;11.772;2023-04-02T05:03:28;7.40;99.90
46117;DHT22;32591;48.102;11.772;2023-04-02T05:06:07;7.40;99.90
46117;DHT22;32591;48.102;11.772;2023-04-02T05:08:40;7.40;99.90
46117;DHT22;32591;48.102;11.772;2023-04-02T05:11:12;7.40;99.90
46117;DHT22;32591;48.102;11.772;2023-04-02T05:13:47;7.40;99.90
46117;DHT22;32591;48.102;11.772;2023-04-02T05:16:22;7.40;99.90
46117;DHT22;32591;48.102;11.772;2023-04-02T05:18:57;7.40;99.90
46117;DHT22;32591;48.102;11.772;2023-04-02T05:21:32;7.40;99.90
46117;DHT22;32591;48.102;11.772;2023-04-02T05:24:35;7.40;99.90
46117;DHT22;32591;48.102;11.772;2023-04-02T05:27:16;7.40;99.90
46117;DHT22;32591;48.102;11.772;2023-04-02T05:29:51;7.40;99.90
46117;DHT22;32591;48.102;11.772;2023-04-02T05:32:25;7.40;99.90
46117;DHT22;32591;48.102;11.772;2023-04-02T05:34:55;7.40;99.90
46117;DHT22;32591;48.102;11.772;2023-04-02T05:37:27;7.40;99.90
46117;DHT22;32591;48.102;11.772;2023-04-02T05:39:57;7.30;99.90
46117;DHT22;32591;48.102;11.772;2023-04-02T05:42:27;7.30;99.90
46117;DHT22;32591;48.102;11.772;2023-04-02T05:45:05;7.30;99.90
46117;DHT22;32591;48.102;11.772;2023-04-02T05:47:36;7.30;99.90
46117;DHT22;32591;48.102;11.772;2023-04-02T05:50:17;7.30;99.90
46117;DHT22;32591;48.102;11.772;2023-04-02T05:52:51;7.30;99.90
46117;DHT22;32591;48.102;11.772;2023-04-02T05:55:28;7.30;99.90
46117;DHT22;32591;48.102;11.772;2023-04-02T05:58:03;7.30;99.90
46117;DHT22;32591;48.102;11.772;2023-04-02T06:01:02;7.40;99.90
46117;DHT22;32591;48.102;11.772;2023-04-02T06:03:41;7.40;99.90
46117;DHT22;32591;48.102;11.772;2023-04-02T06:06:17;7.40;99.90
46117;DHT22;32591;48.102;11.772;2023-04-02T06:08:55;7.40;99.90
46117;DHT22;32591;48.102;11.772;2023-04-02T06:11:26;7.40;99.90
46117;DHT22;32591;48.102;11.772;2023-04-02T06:13:56;7.40;99.90
46117;DHT22;32591;48.102;11.772;2023-04-02T06:16:26;7.40;99.90
46117;DHT22;32591;48.102;11.772;2023-04-02T06:18:55;7.40;99.90
46117;DHT22;32591;48.102;11.772;2023-04-02T06:21:23;7.40;99.90
46117;DHT22;32591;48.102;11.772;2023-04-02T06:23:54;7.40;99.90
46117;DHT22;32591;48.102;11.772;2023-04-02T06:26:25;7.50;99.90
46117;DHT22;32591;48.102;11.772;2023-04-02T06:28:58;7.50;99.90
46117;DHT22;32591;48.102;11.772;2023-04-02T06:31:30;7.50;99.90
46117;DHT22;32591;48.102;11.772;2023-04-02T06:34:02;7.50;99.90
46117;DHT22;32591;48.102;11.772;2023-04-02T06:36:32;7.50;99.90
46117;DHT22;32591;48.102;11.772;2023-04-02T06:39:05;7.50;99.90
46117;DHT22;32591;48.102;11.772;2023-04-02T06:41:33;7.50;99.90
46117;DHT22;32591;48.102;11.772;2023-04-02T06:44:03;7.50;99.90
46117;DHT22;32591;48.102;11.772;2023-04-02T06:46:35;7.50;99.90
46117;DHT22;32591;48.102;11.772;2023-04-02T06:49:14;7.50;99.90
46117;DHT22;32591;48.102;11.772;2023-04-02T06:51:44;7.50;99.90
46117;DHT22;32591;48.102;11.772;2023-04-02T06:54:15;7.60;99.90
46117;DHT22;32591;48.102;11.772;2023-04-02T06:56:45;7.70;99.90
46117;DHT22;32591;48.102;11.772;2023-04-02T06:59:14;7.70;99.90
46117;DHT22;32591;48.102;11.772;2023-04-02T07:01:45;7.80;99.90
46117;DHT22;32591;48.102;11.772;2023-04-02T07:04:14;7.80;99.90
46117;DHT22;32591;48.102;11.772;2023-04-02T07:06:42;7.90;99.90
46117;DHT22;32591;48.102;11.772;2023-04-02T07:09:09;7.90;99.90
46117;DHT22;32591;48.102;11.772;2023-04-02T07:11:38;8.00;99.90
46117;DHT22;32591;48.102;11.772;2023-04-02T07:14:05;8.00;99.90
46117;DHT22;32591;48.102;11.772;2023-04-02T07:16:33;8.00;99.90
46117;DHT22;32591;48.102;11.772;2023-04-02T07:19:01;8.00;99.90
46117;DHT22;32591;48.102;11.772;2023-04-02T07:21:29;8.10;99.90
46117;DHT22;32591;48.102;11.772;2023-04-02T07:23:55;8.10;99.90
46117;DHT22;32591;48.102;11.772;2023-04-02T07:26:25;8.10;99.90
46117;DHT22;32591;48.102;11.772;2023-04-02T07:28:55;8.10;99.90
46117;DHT22;32591;48.102;11.772;2023-04-02T07:31:24;8.20;99.90
46117;DHT22;32591;48.102;11.772;2023-04-02T07:33:53;8.30;99.90
46117;DHT22;32591;48.102;11.772;2023-04-02T07:36:23;8.40;99.90
46117;DHT22;32591;48.102;11.772;2023-04-02T07:38:50;8.40;99.90
46117;DHT22;32591;48.102;11.772;2023-04-02T07:41:18;8.40;99.90
46117;DHT22;32591;48.102;11.772;2023-04-02T07:43:46;8.40;99.90
46117;DHT22;32591;48.102;11.772;2023-04-02T07:46:14;8.50;99.90
46117;DHT22;32591;48.102;11.772;2023-04-02T07:48:44;8.50;99.90
46117;DHT22;32591;48.102;11.772;2023-04-02T07:51:16;8.50;99.90
46117;DHT22;32591;48.102;11.772;2023-04-02T07:53:44;8.70;99.90
46117;DHT22;32591;48.102;11.772;2023-04-02T07:56:16;8.70;99.90
46117;DHT22;32591;48.102;11.772;2023-04-02T07:58:45;8.80;99.90
46117;DHT22;32591;48.102;11.772;2023-04-02T08:01:17;8.80;99.90
46117;DHT22;32591;48.102;11.772;2023-04-02T08:03:46;8.80;99.90
46117;DHT22;32591;48.102;11.772;2023-04-02T08:06:14;8.90;99.90
46117;DHT22;32591;48.102;11.772;2023-04-02T08:08:41;8.80;99.90
46117;DHT22;32591;48.102;11.772;2023-04-02T08:11:08;8.80;99.90
46117;DHT22;32591;48.102;11.772;2023-04-02T08:13:36;8.90;99.90
46117;DHT22;32591;48.102;11.772;2023-04-02T08:16:04;8.80;99.90
46117;DHT22;32591;48.102;11.772;2023-04-02T08:18:34;8.80;99.90
46117;DHT22;32591;48.102;11.772;2023-04-02T08:21:02;9.00;99.90
46117;DHT22;32591;48.102;11.772;2023-04-02T08:23:32;9.00;99.90
46117;DHT22;32591;48.102;11.772;2023-04-02T08:26:00;9.20;99.90
46117;DHT22;32591;48.102;11.772;2023-04-02T08:28:27;9.40;99.90
46117;DHT22;32591;48.102;11.772;2023-04-02T08:30:54;9.40;99.90
46117;DHT22;32591;48.102;11.772;2023-04-02T08:33:21;9.40;99.90
46117;DHT22;32591;48.102;11.772;2023-04-02T08:35:50;9.30;99.90
46117;DHT22;32591;48.102;11.772;2023-04-02T08:38:19;9.30;99.90
46117;DHT22;32591;48.102;11.772;2023-04-02T08:40:48;9.40;99.90
46117;DHT22;32591;48.102;11.772;2023-04-02T08:43:28;9.40;99.90
46117;DHT22;32591;48.102;11.772;2023-04-02T08:46:07;9.40;99.90
46117;DHT22;32591;48.102;11.772;2023-04-02T08:48:39;9.40;99.90
46117;DHT22;32591;48.102;11.772;2023-04-02T08:51:20;9.30;99.90
46117;DHT22;32591;48.102;11.772;2023-04-02T08:53:50;9.40;99.90
46117;DHT22;32591;48.102;11.772;2023-04-02T08:56:25;9.50;99.90
46117;DHT22;32591;48.102;11.772;2023-04-02T08:58:57;9.60;99.90
46117;DHT22;32591;48.102;11.772;2023-04-02T09:01:35;9.70;99.90
46117;DHT22;32591;48.102;11.772;2023-04-02T09:04:13;9.90;99.90
46117;DHT22;32591;48.102;11.772;2023-04-02T09:06:45;10.00;99.90
46117;DHT22;32591;48.102;11.772;2023-04-02T09:09:14;10.00;99.90
46117;DHT22;32591;48.102;11.772;2023-04-02T09:11:49;9.90;99.90
46117;DHT22;32591;48.102;11.772;2023-04-02T09:14:20;9.80;99.90
46117;DHT22;32591;48.102;11.772;2023-04-02T09:16:52;9.90;99.90
46117;DHT22;32591;48.102;11.772;2023-04-02T09:19:22;10.00;99.90
46117;DHT22;32591;48.102;11.772;2023-04-02T09:22:01;10.10;99.90
46117;DHT22;32591;48.102;11.772;2023-04-02T09:24:32;10.20;99.90
46117;DHT22;32591;48.102;11.772;2023-04-02T09:26:59;10.10;99.90
46117;DHT22;32591;48.102;11.772;2023-04-02T09:29:39;10.30;99.90
46117;DHT22;32591;48.102;11.772;2023-04-02T09:32:20;10.40;99.90
46117;DHT22;32591;48.102;11.772;2023-04-02T09:35:05;10.70;99.90
46117;DHT22;32591;48.102;11.772;2023-04-02T09:37:35;10.60;99.90
46117;DHT22;32591;48.102;11.772;2023-04-02T09:40:18;10.60;99.90
46117;DHT22;32591;48.102;11.772;2023-04-02T09:43:01;10.70;99.90
46117;DHT22;32591;48.102;11.772;2023-04-02T09:45:29;10.70;99.90
46117;DHT22;32591;48.102;11.772;2023-04-02T09:47:57;10.60;99.90
46117;DHT22;32591;48.102;11.772;2023-04-02T09:50:27;10.50;99.90
46117;DHT22;32591;48.102;11.772;2023-04-02T09:52:58;10.80;99.90
46117;DHT22;32591;48.102;11.772;2023-04-02T09:56:06;11.10;99.90
46117;DHT22;32591;48.102;11.772;2023-04-02T09:58:35;11.20;99.90
46117;DHT22;32591;48.102;11.772;2023-04-02T10:01:02;11.20;99.90
46117;DHT22;32591;48.102;11.772;2023-04-02T10:03:31;11.30;99.90
46117;DHT22;32591;48.102;11.772;2023-04-02T10:06:10;11.40;99.90
46117;DHT22;32591;48.102;11.772;2023-04-02T10:08:40;11.20;99.90
46117;DHT22;32591;48.102;11.772;2023-04-02T10:11:11;11.30;99.90
46117;DHT22;32591;48.102;11.772;2023-04-02T10:13:45;11.30;99.90
46117;DHT22;32591;48.102;11.772;2023-04-02T10:16:20;11.10;99.90
46117;DHT22;32591;48.102;11.772;2023-04-02T10:18:55;11.00;99.90
46117;DHT22;32591;48.102;11.772;2023-04-02T10:21:26;10.90;99.90
46117;DHT22;32591;48.102;11.772;2023-04-02T10:23:56;10.80;99.90
46117;DHT22;32591;48.102;11.772;2023-04-02T10:26:40;10.90;99.90
46117;DHT22;32591;48.102;11.772;2023-04-02T10:29:39;10.90;99.90
46117;DHT22;32591;48.102;11.772;2023-04-02T10:32:19;11.10;99.90
46117;DHT22;32591;48.102;11.772;2023-04-02T10:34:52;10.90;99.90
46117;DHT22;32591;48.102;11.772;2023-04-02T10:40:30;11.00;99.90
46117;DHT22;32591;48.102;11.772;2023-04-02T10:43:27;11.00;99.90
46117;DHT22;32591;48.102;11.772;2023-04-02T10:46:19;11.10;99.90
46117;DHT22;32591;48.102;11.772;2023-04-02T10:48:56;11.10;99.90
46117;DHT22;32591;48.102;11.772;2023-04-02T10:51:37;11.10;99.90
46117;DHT22;32591;48.102;11.772;2023-04-02T10:54:17;11.20;99.90
46117;DHT22;32591;48.102;11.772;2023-04-02T10:56:59;11.20;99.90
46117;DHT22;32591;48.102;11.772;2023-04-02T10:59:31;11.00;99.90
46117;DHT22;32591;48.102;11.772;2023-04-02T11:02:03;11.00;99.90
46117;DHT22;32591;48.102;11.772;2023-04-02T11:04:39;10.90;99.90
46117;DHT22;32591;48.102;11.772;2023-04-02T11:07:14;11.10;99.90
46117;DHT22;32591;48.102;11.772;2023-04-02T11:09:48;11.20;99.90
46117;DHT22;32591;48.102;11.772;2023-04-02T11:12:22;11.40;99.90
46117;DHT22;32591;48.102;11.772;2023-04-02T11:14:51;11.40;99.90
46117;DHT22;32591;48.102;11.772;2023-04-02T11:17:20;11.50;99.90
46117;DHT22;32591;48.102;11.772;2023-04-02T11:19:48;11.40;99.90
46117;DHT22;32591;48.102;11.772;2023-04-02T11:22:16;11.40;99.90
46117;DHT22;32591;48.102;11.772;2023-04-02T11:24:45;11.40;99.90
46117;DHT22;32591;48.102;11.772;2023-04-02T11:27:16;11.40;99.90
46117;DHT22;32591;48.102;11.772;2023-04-02T11:29:50;11.30;99.90
46117;DHT22;32591;48.102;11.772;2023-04-02T11:32:28;11.30;99.90
46117;DHT22;32591;48.102;11.772;2023-04-02T11:35:02;11.20;99.90
46117;DHT22;32591;48.102;11.772;2023-04-02T11:37:52;11.00;99.90
46117;DHT22;32591;48.102;11.772;2023-04-02T11:40:43;11.00;99.90
46117;DHT22;32591;48.102;11.772;2023-04-02T11:43:50;11.10;99.90
46117;DHT22;32591;48.102;11.772;2023-04-02T11:46:37;11.10;99.90
46117;DHT22;32591;48.102;11.772;2023-04-02T11:49:38;11.20;99.90
46117;DHT22;32591;48.102;11.772;2023-04-02T11:52:24;11.20;99.90
46117;DHT22;32591;48.102;11.772;2023-04-02T11:55:23;11.10;99.90
46117;DHT22;32591;48.102;11.772;2023-04-02T12:01:33;10.90;99.90
46117;DHT22;32591;48.102;11.772;2023-04-02T12:04:27;10.80;99.90
46117;DHT22;32591;48.102;11.772;2023-04-02T12:07:30;10.80;99.90
46117;DHT22;32591;48.102;11.772;2023-04-02T12:10:16;10.90;99.90
46117;DHT22;32591;48.102;11.772;2023-04-02T12:12:44;10.90;99.90
46117;DHT22;32591;48.102;11.772;2023-04-02T12:15:33;11.10;99.90
46117;DHT22;32591;48.102;11.772;2023-04-02T12:18:12;11.20;99.90
46117;DHT22;32591;48.102;11.772;2023-04-02T12:20:45;11.30;99.90
46117;DHT22;32591;48.102;11.772;2023-04-02T12:23:23;11.40;99.90
46117;DHT22;32591;48.102;11.772;2023-04-02T12:25:56;11.50;99.90
46117;DHT22;32591;48.102;11.772;2023-04-02T12:28:24;11.60;99.90
46117;DHT22;32591;48.102;11.772;2023-04-02T12:31:01;11.60;99.90
46117;DHT22;32591;48.102;11.772;2023-04-02T12:33:33;11.70;99.90
46117;DHT22;32591;48.102;11.772;2023-04-02T12:36:04;11.70;99.90
46117;DHT22;32591;48.102;11.772;2023-04-02T12:38:41;11.80;99.90
46117;DHT22;32591;48.102;11.772;2023-04-02T12:41:21;11.80;99.90
46117;DHT22;32591;48.102;11.772;2023-04-02T12:43:56;11.70;99.90
46117;DHT22;32591;48.102;11.772;2023-04-02T12:46:24;11.30;99.90
46117;DHT22;32591;48.102;11.772;2023-04-02T12:48:53;11.00;99.90
46117;DHT22;32591;48.102;11.772;2023-04-02T12:51:30;10.70;99.90
46117;DHT22;32591;48.102;11.772;2023-04-02T12:53:57;10.40;99.90
46117;DHT22;32591;48.102;11.772;2023-04-02T12:56:24;10.20;99.90
46117;DHT22;32591;48.102;11.772;2023-04-02T12:58:53;9.90;99.90
46117;DHT22;32591;48.102;11.772;2023-04-02T13:01:22;9.80;99.90
46117;DHT22;32591;48.102;11.772;2023-04-02T13:04:00;9.70;99.90
46117;DHT22;32591;48.102;11.772;2023-04-02T13:06:29;9.70;99.90
46117;DHT22;32591;48.102;11.772;2023-04-02T13:08:57;9.80;99.90
46117;DHT22;32591;48.102;11.772;2023-04-02T13:11:33;9.90;99.90
46117;DHT22;32591;48.102;11.772;2023-04-02T13:14:02;9.90;99.90
46117;DHT22;32591;48.102;11.772;2023-04-02T13:16:35;9.90;99.90
46117;DHT22;32591;48.102;11.772;2023-04-02T13:19:34;9.80;99.90
46117;DHT22;32591;48.102;11.772;2023-04-02T13:22:02;9.60;99.90
46117;DHT22;32591;48.102;11.772;2023-04-02T13:24:29;9.40;99.90
46117;DHT22;32591;48.102;11.772;2023-04-02T13:26:59;9.30;99.90
46117;DHT22;32591;48.102;11.772;2023-04-02T13:29:28;9.20;99.90
46117;DHT22;32591;48.102;11.772;2023-04-02T13:31:57;9.20;99.90
46117;DHT22;32591;48.102;11.772;2023-04-02T13:34:26;9.20;99.90
46117;DHT22;32591;48.102;11.772;2023-04-02T13:36:54;9.20;99.90
46117;DHT22;32591;48.102;11.772;2023-04-02T13:39:22;9.20;99.90
46117;DHT22;32591;48.102;11.772;2023-04-02T13:41:51;9.20;99.90
46117;DHT22;32591;48.102;11.772;2023-04-02T13:44:23;9.20;99.90
46117;DHT22;32591;48.102;11.772;2023-04-02T13:46:51;9.20;99.90
46117;DHT22;32591;48.102;11.772;2023-04-02T13:49:19;9.20;99.90
46117;DHT22;32591;48.102;11.772;2023-04-02T13:51:48;9.30;99.90
46117;DHT22;32591;48.102;11.772;2023-04-02T13:54:20;9.40;99.90
46117;DHT22;32591;48.102;11.772;2023-04-02T13:56:50;9.40;99.90
46117;DHT22;32591;48.102;11.772;2023-04-02T13:59:18;9.30;99.90
46117;DHT22;32591;48.102;11.772;2023-04-02T14:01:46;9.30;99.90
46117;DHT22;32591;48.102;11.772;2023-04-02T14:04:18;9.40;99.90
46117;DHT22;32591;48.102;11.772;2023-04-02T14:07:18;9.50;99.90
46117;DHT22;32591;48.102;11.772;2023-04-02T14:10:00;9.50;99.90
46117;DHT22;32591;48.102;11.772;2023-04-02T14:12:39;9.50;99.90
46117;DHT22;32591;48.102;11.772;2023-04-02T14:15:21;9.50;99.90
46117;DHT22;32591;48.102;11.772;2023-04-02T14:18:11;9.60;99.90
46117;DHT22;32591;48.102;11.772;2023-04-02T14:20:50;9.60;99.90
46117;DHT22;32591;48.102;11.772;2023-04-02T14:23:33;9.70;99.90
46117;DHT22;32591;48.102;11.772;2023-04-02T14:26:16;9.70;99.90
46117;DHT22;32591;48.102;11.772;2023-04-02T14:28:54;9.60;99.90
46117;DHT22;32591;48.102;11.772;2023-04-02T14:31:32;9.60;99.90
46117;DHT22;32591;48.102;11.772;2023-04-02T14:34:05;9.60;99.90
46117;DHT22;32591;48.102;11.772;2023-04-02T14:36:44;9.60;99.90
46117;DHT22;32591;48.102;11.772;2023-04-02T14:39:24;9.20;99.90
46117;DHT22;32591;48.102;11.772;2023-04-02T14:42:00;8.90;99.90
46117;DHT22;32591;48.102;11.772;2023-04-02T14:44:35;8.90;99.90
46117;DHT22;32591;48.102;11.772;2023-04-02T14:47:14;8.80;99.90
46117;DHT22;32591;48.102;11.772;2023-04-02T14:49:44;8.70;99.90
46117;DHT22;32591;48.102;11.772;2023-04-02T14:52:17;8.60;99.90
46117;DHT22;32591;48.102;11.772;2023-04-02T14:54:49;8.50;99.90
46117;DHT22;32591;48.102;11.772;2023-04-02T14:57:23;8.50;99.90
46117;DHT22;32591;48.102;11.772;2023-04-02T14:59:57;8.50;99.90
46117;DHT22;32591;48.102;11.772;2023-04-02T15:02:33;8.50;99.90
46117;DHT22;32591;48.102;11.772;2023-04-02T15:05:13;8.50;99.90
46117;DHT22;32591;48.102;11.772;2023-04-02T15:07:48;8.50;99.90
46117;DHT22;32591;48.102;11.772;2023-04-02T15:10:23;8.40;99.90
46117;DHT22;32591;48.102;11.772;2023-04-02T15:12:55;8.50;99.90
46117;DHT22;32591;48.102;11.772;2023-04-02T15:15:32;8.50;99.90
46117;DHT22;32591;48.102;11.772;2023-04-02T15:18:02;8.50;99.90
46117;DHT22;32591;48.102;11.772;2023-04-02T15:20:37;8.50;99.90
46117;DHT22;32591;48.102;11.772;2023-04-02T15:23:11;8.60;99.90
46117;DHT22;32591;48.102;11.772;2023-04-02T15:25:46;8.60;99.90
46117;DHT22;32591;48.102;11.772;2023-04-02T15:28:22;8.60;99.90
46117;DHT22;32591;48.102;11.772;2023-04-02T15:30:54;8.60;99.90
46117;DHT22;32591;48.102;11.772;2023-04-02T15:33:40;8.70;99.90
46117;DHT22;32591;48.102;11.772;2023-04-02T15:36:24;8.70;99.90
46117;DHT22;32591;48.102;11.772;2023-04-02T15:39:06;8.60;99.90
46117;DHT22;32591;48.102;11.772;2023-04-02T15:41:51;8.60;99.90
46117;DHT22;32591;48.102;11.772;2023-04-02T15:44:25;8.70;99.90
46117;DHT22;32591;48.102;11.772;2023-04-02T15:46:55;8.60;99.90
46117;DHT22;32591;48.102;11.772;2023-04-02T15:49:38;8.60;99.90
46117;DHT22;32591;48.102;11.772;2023-04-02T15:52:09;8.60;99.90
46117;DHT22;32591;48.102;11.772;2023-04-02T15:54:57;8.60;99.90
46117;DHT22;32591;48.102;11.772;2023-04-02T15:57:48;8.60;99.90
46117;DHT22;32591;48.102;11.772;2023-04-02T16:00:29;8.70;99.90
46117;DHT22;32591;48.102;11.772;2023-04-02T16:03:19;8.70;99.90
46117;DHT22;32591;48.102;11.772;2023-04-02T16:06:09;8.70;99.90
46117;DHT22;32591;48.102;11.772;2023-04-02T16:09:01;8.60;99.90
46117;DHT22;32591;48.102;11.772;2023-04-02T16:11:33;8.50;99.90
46117;DHT22;32591;48.102;11.772;2023-04-02T16:14:14;8.50;99.90
46117;DHT22;32591;48.102;11.772;2023-04-02T16:16:49;8.60;99.90
46117;DHT22;32591;48.102;11.772;2023-04-02T16:19:21;8.80;99.90
46117;DHT22;32591;48.102;11.772;2023-04-02T16:21:57;8.90;99.90
46117;DHT22;32591;48.102;11.772;2023-04-02T16:24:28;8.80;99.90
46117;DHT22;32591;48.102;11.772;2023-04-02T16:27:09;8.70;99.90